createdAt,value
2019-03-16T00:01:02.410Z,6.03
2019-03-16T00:03:33.125Z,7.47
2019-03-16T00:06:03.147Z,7.03
2019-03-16T00:08:33.512Z,5.90
2019-03-16T00:11:03.210Z,5.23
2019-03-16T00:13:33.973Z,4.60
2019-03-16T00:16:04.117Z,7.27
2019-03-16T00:18:34.891Z,7.97
2019-03-16T00:21:05.244Z,6.07
2019-03-16T00:23:35.582Z,4.57
2019-03-16T00:26:06.002Z,8.03
2019-03-16T00:28:36.014Z,5.67
2019-03-16T00:31:06.765Z,4.60
2019-03-16T00:33:36.679Z,4.40
2019-03-16T00:36:07.368Z,4.00
2019-03-16T00:38:37.693Z,4.93
2019-03-16T00:41:08.873Z,6.77
2019-03-16T00:43:38.784Z,4.57
2019-03-16T00:46:08.816Z,4.47
2019-03-16T00:48:39.124Z,3.17
2019-03-16T00:51:09.870Z,2.50
2019-03-16T00:53:39.987Z,4.33
2019-03-16T00:56:10.222Z,4.20
2019-03-16T00:58:40.547Z,6.33
2019-03-16T01:01:11.160Z,2.70
2019-03-16T01:03:41.424Z,3.77
2019-03-16T01:06:11.368Z,4.10
2019-03-16T01:08:42.430Z,3.50
2019-03-16T01:11:13.974Z,2.23
2019-03-16T01:13:44.391Z,3.73
2019-03-16T01:16:14.765Z,3.60
2019-03-16T01:18:45.426Z,2.83
2019-03-16T01:21:15.121Z,2.50
2019-03-16T01:23:45.013Z,5.27
2019-03-16T01:26:15.228Z,4.40
2019-03-16T01:28:45.360Z,3.97
2019-03-16T01:31:15.561Z,3.87
2019-03-16T01:33:45.690Z,4.50
2019-03-16T01:36:16.139Z,3.80
2019-03-16T01:38:46.513Z,4.10
2019-03-16T01:41:17.494Z,6.10
2019-03-16T01:43:47.852Z,6.43
2019-03-16T01:46:17.664Z,3.43
2019-03-16T01:48:47.622Z,8.63
2019-03-16T01:51:17.889Z,3.50
2019-03-16T01:53:47.867Z,6.30
2019-03-16T01:56:17.511Z,2.87
2019-03-16T01:58:47.931Z,1.90
2019-03-16T02:01:18.263Z,5.70
2019-03-16T02:03:47.869Z,5.30
2019-03-16T02:06:17.636Z,2.83
2019-03-16T02:16:14.395Z,5.23
2019-03-16T02:18:44.238Z,5.57
2019-03-16T02:21:14.467Z,5.27
2019-03-16T02:23:44.571Z,3.77
2019-03-16T02:28:44.769Z,3.90
2019-03-16T02:31:15.040Z,3.90
2019-03-16T02:33:45.315Z,6.80
2019-03-16T02:36:15.703Z,3.43
2019-03-16T02:38:46.221Z,7.87
2019-03-16T02:41:16.142Z,5.83
2019-03-16T02:43:46.308Z,3.97
2019-03-16T02:46:16.337Z,2.13
2019-03-16T02:48:46.435Z,4.50
2019-03-16T02:51:16.154Z,3.30
2019-03-16T02:53:46.305Z,4.80
2019-03-16T02:56:16.768Z,4.20
2019-03-16T02:58:46.451Z,9.53
2019-03-16T03:01:16.433Z,2.53
2019-03-16T03:03:46.200Z,7.17
2019-03-16T03:06:15.854Z,4.70
2019-03-16T03:08:45.872Z,2.70
2019-03-16T03:11:15.545Z,9.20
2019-03-16T03:13:45.106Z,3.37
2019-03-16T03:16:14.795Z,8.47
2019-03-16T03:18:49.402Z,4.83
2019-03-16T03:21:16.233Z,4.20
2019-03-16T03:23:46.290Z,2.23
2019-03-16T03:26:16.022Z,5.93
2019-03-16T03:28:45.815Z,9.33
2019-03-16T03:31:15.611Z,6.00
2019-03-16T03:33:59.660Z,7.43
2019-03-16T03:36:17.826Z,7.03
2019-03-16T03:38:47.960Z,4.20
2019-03-16T03:41:17.966Z,8.43
2019-03-16T03:43:47.384Z,5.83
2019-03-16T03:46:17.398Z,3.17
2019-03-16T03:48:47.095Z,6.67
2019-03-16T03:51:17.292Z,7.23
2019-03-16T03:53:47.952Z,3.73
2019-03-16T03:56:18.020Z,4.53
2019-03-16T03:58:47.879Z,5.90
2019-03-16T04:01:18.256Z,3.13
2019-03-16T04:03:47.966Z,3.40
2019-03-16T04:06:17.521Z,2.27
2019-03-16T04:08:47.643Z,7.90
2019-03-16T04:11:17.409Z,9.60
2019-03-16T04:13:49.746Z,3.90
2019-03-16T04:16:19.516Z,4.93
2019-03-16T04:18:51.711Z,8.23
2019-03-16T04:21:20.830Z,2.47
2019-03-16T04:23:51.250Z,5.23
2019-03-16T04:26:20.966Z,3.90
2019-03-16T04:28:50.799Z,6.20
2019-03-16T04:31:20.879Z,5.07
2019-03-16T04:33:50.911Z,7.03
2019-03-16T04:36:20.362Z,6.60
2019-03-16T04:38:49.738Z,5.33
2019-03-16T04:41:20.416Z,7.50
2019-03-16T04:43:50.319Z,6.93
2019-03-16T04:46:20.579Z,5.13
2019-03-16T04:48:50.813Z,6.40
2019-03-16T04:51:23.174Z,5.37
2019-03-16T04:53:52.587Z,5.70
2019-03-16T04:56:22.894Z,3.80
2019-03-16T04:58:52.619Z,8.07
2019-03-16T05:01:22.750Z,7.13
2019-03-16T05:03:52.533Z,3.43
2019-03-16T05:06:23.002Z,3.70
2019-03-16T05:08:52.786Z,3.90
2019-03-16T05:11:22.897Z,8.97
2019-03-16T05:13:52.635Z,5.37
2019-03-16T05:16:22.381Z,5.50
2019-03-16T05:18:51.831Z,3.47
2019-03-16T05:21:21.539Z,5.57
2019-03-16T05:23:51.666Z,3.20
2019-03-16T05:26:21.789Z,3.63
2019-03-16T05:28:51.468Z,5.40
2019-03-16T05:31:21.635Z,4.77
2019-03-16T05:33:51.431Z,5.03
2019-03-16T05:36:21.466Z,2.03
2019-03-16T05:38:52.227Z,6.23
2019-03-16T05:41:21.675Z,8.03
2019-03-16T05:43:51.410Z,1.83
2019-03-16T05:46:20.826Z,5.53
2019-03-16T05:48:50.191Z,5.57
2019-03-16T05:51:20.080Z,5.17
2019-03-16T05:53:50.423Z,4.50
2019-03-16T05:56:20.966Z,2.27
2019-03-16T05:58:51.038Z,5.07
2019-03-16T06:01:21.133Z,3.40
2019-03-16T06:03:50.855Z,4.00
2019-03-16T06:06:21.402Z,3.93
2019-03-16T06:08:50.822Z,4.60
2019-03-16T06:11:21.775Z,3.17
2019-03-16T06:13:51.230Z,2.50
2019-03-16T06:16:21.014Z,7.83
2019-03-16T06:18:51.215Z,5.10
2019-03-16T06:21:21.272Z,3.50
2019-03-16T06:23:51.446Z,5.10
2019-03-16T06:26:21.291Z,3.77
2019-03-16T06:28:51.042Z,10.63
2019-03-16T06:31:20.454Z,2.87
2019-03-16T06:33:50.851Z,5.13
2019-03-16T06:36:20.674Z,5.70
2019-03-16T06:38:50.784Z,5.90
2019-03-16T06:41:21.124Z,8.20
2019-03-16T06:43:51.235Z,5.00
2019-03-16T06:46:20.946Z,6.17
2019-03-16T06:48:50.430Z,4.00
2019-03-16T06:51:19.864Z,5.23
2019-03-16T06:53:49.311Z,7.33
2019-03-16T06:56:18.967Z,8.37
2019-03-16T06:58:48.378Z,11.67
2019-03-16T07:01:18.012Z,5.87
2019-03-16T07:03:47.914Z,4.83
2019-03-16T07:06:18.313Z,6.23
2019-03-16T07:08:48.062Z,5.23
2019-03-16T07:11:17.954Z,4.90
2019-03-16T07:13:47.483Z,7.73
2019-03-16T07:16:16.990Z,8.40
2019-03-16T07:18:58.317Z,4.40
2019-03-16T07:21:18.953Z,8.63
2019-03-16T07:23:48.886Z,8.83
2019-03-16T07:26:19.523Z,6.50
2019-03-16T07:28:49.870Z,6.57
2019-03-16T07:31:19.608Z,7.13
2019-03-16T07:33:49.430Z,7.27
2019-03-16T07:36:19.658Z,3.17
2019-03-16T07:38:50.843Z,4.70
2019-03-16T07:41:21.304Z,4.67
2019-03-16T07:43:51.254Z,9.93
2019-03-16T07:46:20.630Z,4.80
2019-03-16T07:48:50.446Z,6.83
2019-03-16T07:51:20.611Z,3.67
2019-03-16T07:53:50.714Z,5.80
2019-03-16T07:56:20.409Z,5.17
2019-03-16T07:58:50.539Z,5.50
2019-03-16T08:01:20.335Z,6.03
2019-03-16T08:03:50.482Z,5.70
2019-03-16T08:06:20.010Z,4.90
2019-03-16T08:08:49.399Z,4.40
2019-03-16T08:11:19.161Z,7.03
2019-03-16T08:13:49.352Z,2.97
2019-03-16T08:16:19.249Z,4.08
2019-03-16T08:18:49.395Z,2.93
2019-03-16T08:21:19.192Z,4.23
2019-03-16T08:23:49.303Z,3.03
2019-03-16T08:26:18.708Z,3.10
2019-03-16T08:28:48.458Z,3.00
2019-03-16T08:31:17.840Z,2.50
2019-03-16T08:33:47.183Z,3.20
2019-03-16T08:36:16.934Z,3.30
2019-03-16T08:38:46.526Z,3.53
2019-03-16T08:41:16.354Z,2.97
2019-03-16T08:43:46.470Z,4.17
2019-03-16T08:46:16.609Z,6.67
2019-03-16T08:48:46.147Z,4.37
2019-03-16T08:51:15.968Z,3.70
2019-03-16T08:53:45.721Z,3.17
2019-03-16T08:56:15.636Z,3.57
2019-03-16T08:58:45.420Z,4.73
2019-03-16T09:01:15.139Z,6.50
2019-03-16T09:03:45.221Z,3.30
2019-03-16T09:06:14.932Z,4.20
2019-03-16T09:08:45.166Z,2.70
2019-03-16T09:11:14.956Z,4.60
2019-03-16T09:13:44.800Z,3.60
2019-03-16T09:16:15.170Z,3.90
2019-03-16T09:18:45.443Z,5.93
2019-03-16T09:21:16.701Z,3.70
2019-03-16T09:23:46.134Z,3.87
2019-03-16T09:26:15.502Z,5.67
2019-03-16T09:28:45.792Z,3.50
2019-03-16T09:31:15.550Z,2.53
2019-03-16T09:33:46.152Z,2.10
2019-03-16T09:36:16.261Z,3.27
2019-03-16T09:38:46.159Z,5.80
2019-03-16T09:41:15.654Z,3.90
2019-03-16T09:43:45.448Z,5.40
2019-03-16T09:46:15.743Z,2.93
2019-03-16T09:48:45.543Z,3.90
2019-03-16T09:51:15.199Z,2.73
2019-03-16T09:53:45.140Z,3.53
2019-03-16T09:56:15.290Z,1.90
2019-03-16T09:58:45.119Z,5.40
2019-03-16T10:01:15.536Z,2.93
2019-03-16T10:03:46.756Z,3.70
2019-03-16T10:06:16.157Z,4.00
2019-03-16T10:08:46.173Z,3.87
2019-03-16T10:11:16.012Z,3.97
2019-03-16T10:13:46.285Z,2.30
2019-03-16T10:16:16.038Z,7.37
2019-03-16T10:18:45.903Z,4.97
2019-03-16T10:21:18.621Z,5.30
2019-03-16T10:23:47.138Z,4.40
2019-03-16T10:26:17.230Z,3.77
2019-03-16T10:28:47.648Z,3.50
2019-03-16T10:31:17.694Z,11.27
2019-03-16T10:33:47.538Z,4.37
2019-03-16T10:36:16.956Z,3.53
2019-03-16T10:38:46.496Z,4.37
2019-03-16T10:41:16.606Z,5.33
2019-03-16T10:43:46.537Z,5.37
2019-03-16T10:46:16.308Z,3.60
2019-03-16T10:48:46.425Z,4.93
2019-03-16T10:51:16.212Z,6.87
2019-03-16T10:53:45.899Z,3.30
2019-03-16T10:56:15.707Z,4.10
2019-03-16T10:58:55.997Z,3.83
2019-03-16T11:01:17.237Z,4.50
2019-03-16T11:03:47.243Z,3.93
2019-03-16T11:06:17.011Z,3.97
2019-03-16T11:08:46.753Z,5.50
2019-03-16T11:11:17.227Z,3.53
2019-03-16T11:13:47.219Z,6.30
2019-03-16T11:16:17.730Z,3.97
2019-03-16T11:18:48.041Z,7.40
2019-03-16T11:21:17.507Z,3.63
2019-03-16T11:23:47.316Z,4.20
2019-03-16T11:26:16.943Z,6.73
2019-03-16T11:28:46.982Z,4.50
2019-03-16T11:31:17.227Z,5.10
2019-03-16T11:33:48.541Z,5.30
2019-03-16T11:36:18.572Z,5.20
2019-03-16T11:38:48.368Z,3.40
2019-03-16T11:41:18.207Z,2.20
2019-03-16T11:43:48.719Z,3.97
2019-03-16T11:46:18.551Z,4.50
2019-03-16T11:48:49.332Z,3.40
2019-03-16T11:51:19.130Z,3.60
2019-03-16T11:53:49.219Z,4.60
2019-03-16T11:56:19.049Z,4.40
2019-03-16T11:58:48.498Z,3.67
2019-03-16T12:01:18.160Z,5.57
2019-03-16T12:03:47.952Z,4.33
2019-03-16T12:06:17.706Z,3.80
2019-03-16T12:08:47.196Z,3.83
2019-03-16T12:11:16.690Z,3.83
2019-03-16T12:13:46.185Z,2.80
2019-03-16T12:16:15.694Z,6.13
2019-03-16T12:18:45.055Z,4.23
2019-03-16T12:21:14.827Z,4.43
2019-03-16T12:23:44.870Z,4.40
2019-03-16T12:26:14.711Z,5.63
2019-03-16T12:28:44.854Z,4.30
2019-03-16T12:31:14.680Z,4.13
2019-03-16T12:33:45.263Z,4.90
2019-03-16T12:36:15.050Z,6.30
2019-03-16T12:38:45.550Z,3.13
2019-03-16T12:41:15.465Z,3.90
2019-03-16T12:43:45.633Z,2.50
2019-03-16T12:46:15.544Z,2.57
2019-03-16T12:48:45.850Z,2.43
2019-03-16T12:51:16.694Z,3.70
2019-03-16T12:53:46.479Z,6.03
2019-03-16T12:56:16.371Z,2.30
2019-03-16T12:58:46.058Z,2.87
2019-03-16T13:01:16.897Z,2.90
2019-03-16T13:03:46.959Z,3.67
2019-03-16T13:06:19.028Z,2.40
2019-03-16T13:08:48.749Z,3.87
2019-03-16T13:11:18.866Z,2.60
2019-03-16T13:13:48.599Z,3.40
2019-03-16T13:16:18.766Z,3.30
2019-03-16T13:18:48.587Z,4.30
2019-03-16T13:21:18.741Z,3.90
2019-03-16T13:23:49.542Z,3.40
2019-03-16T13:26:19.275Z,4.40
2019-03-16T13:28:49.485Z,5.50
2019-03-16T13:31:19.928Z,6.33
2019-03-16T13:33:53.406Z,6.73
2019-03-16T13:36:23.384Z,5.20
2019-03-16T13:38:53.056Z,10.23
2019-03-16T13:41:22.535Z,3.77
2019-03-16T13:43:53.094Z,4.50
2019-03-16T13:46:23.315Z,2.80
2019-03-16T13:48:57.095Z,3.60
2019-03-16T13:51:27.222Z,5.53
2019-03-16T13:53:57.623Z,2.53
2019-03-16T13:56:27.889Z,2.97
2019-03-16T13:58:58.220Z,5.23
2019-03-16T14:01:28.335Z,7.73
2019-03-16T14:03:57.861Z,4.77
2019-03-16T14:06:28.283Z,4.80
2019-03-16T14:08:58.486Z,10.80
2019-03-16T14:11:28.302Z,6.40
2019-03-16T14:13:58.519Z,7.93
2019-03-16T14:16:28.770Z,6.13
2019-03-16T14:18:59.271Z,5.33
2019-03-16T14:21:29.292Z,3.83
2019-03-16T14:23:59.641Z,6.83
2019-03-16T14:26:29.623Z,4.23
2019-03-16T14:28:59.878Z,6.10
2019-03-16T14:31:30.056Z,5.53
2019-03-16T14:34:00.533Z,5.63
2019-03-16T14:36:31.222Z,6.67
2019-03-16T14:39:02.052Z,4.87
2019-03-16T14:41:32.060Z,6.63
2019-03-16T14:44:01.981Z,5.87
2019-03-16T14:46:32.140Z,8.80
2019-03-16T14:49:02.271Z,6.43
2019-03-16T14:51:32.695Z,3.53
2019-03-16T14:54:03.040Z,5.53
2019-03-16T14:56:33.454Z,4.20
2019-03-16T14:59:03.891Z,7.67
2019-03-16T15:01:33.645Z,5.97
2019-03-16T15:04:03.739Z,13.67
2019-03-16T15:06:33.420Z,5.43
2019-03-16T15:09:04.474Z,11.27
2019-03-16T15:11:34.306Z,5.70
2019-03-16T15:14:04.129Z,6.23
2019-03-16T15:16:34.059Z,10.40
2019-03-16T15:19:03.468Z,4.77
2019-03-16T15:21:33.231Z,4.80
2019-03-16T15:24:02.571Z,7.17
2019-03-16T15:26:32.682Z,11.77
2019-03-16T15:29:02.071Z,8.70
2019-03-16T15:31:31.975Z,11.33
2019-03-16T15:34:02.694Z,8.73
2019-03-16T15:36:32.518Z,11.00
2019-03-16T15:39:01.894Z,9.07
2019-03-16T15:41:31.681Z,9.33
2019-03-16T15:44:02.513Z,10.60
2019-03-16T15:46:32.752Z,13.47
2019-03-16T15:49:04.150Z,10.53
2019-03-16T15:51:34.176Z,9.93
2019-03-16T15:54:04.765Z,13.27
2019-03-16T15:56:34.520Z,13.33
2019-03-16T15:59:04.504Z,9.97
2019-03-16T16:01:34.698Z,10.43
2019-03-16T16:04:04.880Z,16.70
2019-03-16T16:06:35.092Z,9.77
2019-03-16T16:09:07.080Z,17.90
2019-03-16T16:11:37.763Z,10.80
2019-03-16T16:14:07.179Z,11.57
2019-03-16T16:16:36.615Z,13.70
2019-03-16T16:19:07.029Z,16.33
2019-03-16T16:21:36.799Z,11.70
2019-03-16T16:24:06.850Z,11.80
2019-03-16T16:26:36.696Z,13.90
2019-03-16T16:29:06.498Z,9.57
2019-03-16T16:31:38.376Z,9.80
2019-03-16T16:34:08.444Z,20.73
2019-03-16T16:36:38.266Z,11.00
2019-03-16T16:39:08.674Z,14.73
2019-03-16T16:41:38.452Z,17.13
2019-03-16T16:44:07.899Z,21.03
2019-03-16T16:46:37.916Z,16.10
2019-03-16T16:49:07.709Z,11.27
2019-03-16T16:51:37.484Z,10.53
2019-03-16T16:54:07.612Z,12.50
2019-03-16T16:56:37.118Z,12.57
2019-03-16T16:59:07.118Z,15.93
2019-03-16T17:01:37.227Z,20.50
2019-03-16T17:04:06.602Z,15.47
2019-03-16T17:06:36.474Z,13.67
2019-03-16T17:09:09.058Z,14.80
2019-03-16T17:11:39.276Z,17.93
2019-03-16T17:14:08.765Z,18.50
2019-03-16T17:16:38.268Z,15.50
2019-03-16T17:19:08.382Z,14.23
2019-03-16T17:21:38.215Z,12.07
2019-03-16T17:24:08.340Z,17.80
2019-03-16T17:26:37.920Z,13.77
2019-03-16T17:29:08.755Z,12.03
2019-03-16T17:31:42.455Z,12.47
2019-03-16T17:34:09.650Z,12.13
2019-03-16T17:36:39.876Z,10.17
2019-03-16T17:39:09.619Z,16.90
2019-03-16T17:41:39.193Z,16.20
2019-03-16T17:44:08.708Z,17.90
2019-03-16T17:46:39.180Z,12.83
2019-03-16T17:49:09.226Z,8.90
2019-03-16T17:51:38.993Z,12.10
2019-03-16T17:54:09.471Z,13.50
2019-03-16T17:56:39.606Z,15.60
2019-03-16T17:59:09.795Z,18.10
2019-03-16T18:01:39.604Z,16.93
2019-03-16T18:04:10.101Z,14.13
2019-03-16T18:06:39.628Z,10.87
2019-03-16T18:09:09.048Z,8.47
2019-03-16T18:11:39.301Z,11.73
2019-03-16T18:14:08.762Z,31.23
2019-03-16T18:16:38.471Z,14.60
2019-03-16T18:19:08.825Z,19.10
2019-03-16T18:21:38.380Z,12.27
2019-03-16T18:24:08.199Z,18.90
2019-03-16T18:26:38.575Z,18.73
2019-03-16T18:29:08.679Z,16.13
2019-03-16T18:31:38.382Z,16.30
2019-03-16T18:34:07.876Z,16.07
2019-03-16T18:36:38.139Z,21.13
2019-03-16T18:39:07.917Z,16.37
2019-03-16T18:41:37.467Z,16.87
2019-03-16T18:44:07.585Z,29.00
2019-03-16T18:46:37.408Z,13.20
2019-03-16T18:49:07.586Z,10.37
2019-03-16T18:51:37.647Z,20.13
2019-03-16T18:54:07.187Z,17.83
2019-03-16T18:56:36.963Z,18.03
2019-03-16T18:59:09.271Z,25.40
2019-03-16T19:01:38.584Z,22.23
2019-03-16T19:04:08.653Z,25.03
2019-03-16T19:06:38.777Z,18.03
2019-03-16T19:09:09.596Z,23.80
2019-03-16T19:11:38.966Z,21.63
2019-03-16T19:14:08.851Z,25.40
2019-03-16T19:16:38.539Z,28.43
2019-03-16T19:19:09.026Z,29.83
2019-03-16T19:21:39.858Z,27.07
2019-03-16T19:24:10.251Z,31.00
2019-03-16T19:26:40.271Z,34.90
2019-03-16T19:29:10.376Z,29.33
2019-03-16T19:31:40.131Z,30.57
2019-03-16T19:34:10.255Z,24.07
2019-03-16T19:36:39.997Z,24.83
2019-03-16T19:39:10.431Z,25.53
2019-03-16T19:41:41.655Z,28.33
2019-03-16T19:44:11.528Z,25.77
2019-03-16T19:46:41.352Z,27.03
2019-03-16T19:49:10.847Z,27.13
2019-03-16T19:51:41.200Z,34.93
2019-03-16T19:54:11.226Z,27.67
2019-03-16T19:56:40.622Z,30.30
2019-03-16T19:59:10.461Z,22.17
2019-03-16T20:01:40.291Z,21.33
2019-03-16T20:04:10.115Z,22.20
2019-03-16T20:06:39.593Z,24.10
2019-03-16T20:09:10.484Z,26.17
2019-03-16T20:11:39.879Z,30.40
2019-03-16T20:14:09.678Z,19.43
2019-03-16T20:16:39.406Z,19.40
2019-03-16T20:19:09.772Z,24.90
2019-03-16T20:21:39.832Z,27.90
2019-03-16T20:24:09.953Z,26.83
2019-03-16T20:26:39.723Z,22.10
2019-03-16T20:29:09.513Z,26.63
2019-03-16T20:31:46.931Z,21.40
2019-03-16T20:34:11.225Z,27.10
2019-03-16T20:36:40.947Z,24.53
2019-03-16T20:39:11.088Z,27.10
2019-03-16T20:41:40.797Z,31.97
2019-03-16T20:44:10.927Z,27.03
2019-03-16T20:46:41.258Z,27.60
2019-03-16T20:49:11.063Z,27.47
2019-03-16T20:51:41.491Z,27.17
2019-03-16T20:54:11.527Z,31.23
2019-03-16T20:56:40.994Z,33.93
2019-03-16T20:59:10.858Z,32.93
2019-03-16T21:01:41.357Z,30.17
2019-03-16T21:04:11.011Z,29.83
2019-03-16T21:06:41.032Z,30.73
2019-03-16T21:09:10.919Z,27.43
2019-03-16T21:11:41.040Z,24.33
2019-03-16T21:14:11.147Z,28.97
2019-03-16T21:16:41.756Z,30.80
2019-03-16T21:19:11.478Z,32.07
2019-03-16T21:21:41.299Z,28.10
2019-03-16T21:24:11.218Z,30.00
2019-03-16T21:26:51.901Z,25.80
2019-03-16T21:29:13.175Z,31.40
2019-03-16T21:31:43.632Z,22.80
2019-03-16T21:34:13.410Z,32.43
2019-03-16T21:36:43.557Z,31.70
2019-03-16T21:39:13.581Z,29.57
2019-03-16T21:41:44.486Z,33.67
2019-03-16T21:44:14.463Z,29.27
2019-03-16T21:46:44.143Z,34.60
2019-03-16T21:49:14.543Z,26.10
2019-03-16T21:51:43.950Z,25.63
2019-03-16T21:54:14.022Z,29.87
2019-03-16T21:56:44.414Z,33.10
2019-03-16T21:59:14.756Z,29.00
2019-03-16T22:01:45.172Z,34.03
2019-03-16T22:04:14.878Z,34.93
2019-03-16T22:06:45.283Z,32.30
2019-03-16T22:09:15.343Z,35.37
2019-03-16T22:11:45.451Z,31.27
2019-03-16T22:14:15.474Z,36.03
2019-03-16T22:16:45.481Z,30.73
2019-03-16T22:19:15.271Z,40.23
2019-03-16T22:21:44.790Z,36.00
2019-03-16T22:24:14.529Z,29.90
2019-03-16T22:26:44.300Z,33.73
2019-03-16T22:29:14.362Z,34.40
2019-03-16T22:31:44.147Z,29.40
2019-03-16T22:34:13.978Z,34.30
2019-03-16T22:36:44.104Z,33.90
2019-03-16T22:39:14.220Z,32.40
2019-03-16T22:41:44.680Z,32.43
2019-03-16T22:44:14.771Z,29.00
2019-03-16T22:46:44.783Z,39.27
2019-03-16T22:49:14.686Z,31.47
2019-03-16T22:51:44.478Z,37.87
2019-03-16T22:54:14.307Z,30.40
2019-03-16T22:56:43.699Z,38.53
2019-03-16T22:59:13.076Z,33.67
2019-03-16T23:01:43.669Z,37.00
2019-03-16T23:04:13.190Z,27.67
2019-03-16T23:06:43.613Z,35.80
2019-03-16T23:09:13.466Z,28.03
2019-03-16T23:11:43.222Z,27.37
2019-03-16T23:14:12.925Z,33.80
2019-03-16T23:16:45.316Z,29.17
2019-03-16T23:19:15.086Z,28.70
2019-03-16T23:21:45.258Z,29.67
2019-03-16T23:24:14.968Z,31.40
2019-03-16T23:26:44.495Z,28.80
2019-03-16T23:29:14.899Z,28.60
2019-03-16T23:31:44.756Z,23.80
2019-03-16T23:34:19.177Z,26.70
2019-03-16T23:36:45.663Z,27.63
2019-03-16T23:39:15.048Z,24.63
2019-03-16T23:41:45.168Z,26.60
2019-03-16T23:44:14.955Z,26.43
2019-03-16T23:46:44.419Z,35.10
2019-03-16T23:49:14.527Z,32.53
2019-03-16T23:51:44.623Z,23.50
2019-03-16T23:54:14.659Z,30.63
2019-03-16T23:56:44.917Z,28.07
2019-03-16T23:59:14.858Z,29.93
